Upstream stations:
Downstream station:
SHEF ID: BRIO2 Canadian River at Bridgeport, OK
STATION TYPE:
Regulating: Stage = 15.00, Flow = 8545
STAGE RIV-FLOW
ft cfs
Ccp-Rev Ccp-Rev
(US/Central)
05/30 00:00 12.60 2190
05/30 01:00 12.60 2190
05/30 02:00 12.58 2161
05/30 03:00 12.57 2146
05/30 04:00 12.57 2146
05/30 05:00 12.56 2132
05/30 06:00 12.63 2235
05/30 07:00 13.11 3036
05/30 08:00 13.10 3018
05/30 09:00 13.03 2891
05/30 10:00 12.97 2785
05/30 11:00 12.94 2733
05/30 12:00 12.93 2716
05/30 13:00 12.90 2665
05/30 14:00 12.86 2598
05/30 15:00 12.85 2581
05/30 16:00 12.83 2548
05/30 17:00 12.83 2548
05/30 18:00 12.82 2532
05/30 19:00 12.80 2500
05/30 20:00 12.68 2311
05/30 21:00 12.64 2250
05/30 22:00 9.99 171
05/30 23:00 ---- ----